Time;durP1;ratioP1;P1;durP2;ratioP2;P2;SDS_P1;SDS_P2;PMS_P1;PMS_P2;Temp;Humidity;BMP_temperature;BMP_pressure;BME280_temperature;BME280_humidity;BME280_pressure;Samples;Min_cycle;Max_cycle;Signal;HPM_P1;HPM_P2
2023/05/03 00:01:10;;;;;;;4.63;2.75;;;10.10;99.90;;;;;;4176325;28;20387;-61
2023/05/03 00:03:12;;;;;;;3.13;2.03;;;10.10;99.90;;;;;;4175987;28;20030;-61
2023/05/03 00:05:13;;;;;;;4.45;2.00;;;10.10;99.90;;;;;;4176165;28;20056;-62
2023/05/03 00:07:14;;;;;;;5.88;2.58;;;10.10;99.90;;;;;;4177095;28;20132;-61
2023/05/03 00:09:15;;;;;;;4.32;2.38;;;10.10;99.90;;;;;;4175647;28;20439;-61
2023/05/03 00:11:15;;;;;;;4.53;2.22;;;10.10;99.90;;;;;;4175480;28;20033;-61
2023/05/03 00:13:16;;;;;;;3.35;1.92;;;10.00;99.90;;;;;;4177011;28;20029;-61
2023/05/03 00:15:16;;;;;;;3.97;2.03;;;10.00;99.90;;;;;;4174003;28;20573;-61
2023/05/03 00:17:17;;;;;;;2.85;2.08;;;9.90;99.90;;;;;;4175780;28;20500;-61
2023/05/03 00:19:18;;;;;;;2.35;1.65;;;9.90;99.90;;;;;;4170890;28;20032;-61
2023/05/03 00:21:19;;;;;;;3.17;2.22;;;9.90;99.90;;;;;;4174119;28;20029;-61
2023/05/03 00:23:20;;;;;;;7.38;2.30;;;9.90;99.90;;;;;;4176494;28;20056;-61
2023/05/03 00:25:20;;;;;;;3.15;2.20;;;9.80;99.90;;;;;;4174895;28;20029;-61
2023/05/03 00:27:23;;;;;;;3.35;2.17;;;9.80;99.90;;;;;;4174595;28;20045;-61
2023/05/03 00:29:23;;;;;;;3.17;1.90;;;9.80;99.90;;;;;;4175614;28;20033;-61
2023/05/03 00:31:24;;;;;;;4.18;2.38;;;9.80;99.90;;;;;;4175982;28;20422;-61
2023/05/03 00:33:24;;;;;;;3.65;2.15;;;9.80;99.90;;;;;;4175635;28;20037;-61
2023/05/03 00:35:26;;;;;;;2.42;1.90;;;9.70;99.90;;;;;;4175331;28;20079;-61
2023/05/03 00:37:28;;;;;;;3.83;2.30;;;9.70;99.90;;;;;;4176530;28;20029;-61
2023/05/03 00:39:30;;;;;;;3.15;1.67;;;9.70;99.90;;;;;;4176318;28;20049;-65
2023/05/03 00:41:31;;;;;;;4.27;2.50;;;9.60;99.90;;;;;;4170561;28;20029;-62
2023/05/03 00:43:33;;;;;;;4.25;2.55;;;9.60;99.90;;;;;;4176990;28;20095;-62
2023/05/03 00:45:34;;;;;;;4.40;2.10;;;9.60;99.90;;;;;;4174561;28;20071;-61
2023/05/03 00:47:36;;;;;;;3.80;2.05;;;9.60;99.90;;;;;;4175812;28;20033;-61
2023/05/03 00:49:37;;;;;;;3.80;1.95;;;9.60;99.90;;;;;;4175020;28;20036;-61
2023/05/03 00:51:38;;;;;;;4.63;2.47;;;9.50;99.90;;;;;;4174587;28;20033;-62
2023/05/03 00:53:40;;;;;;;4.53;2.38;;;9.50;99.90;;;;;;4174947;28;20033;-61
2023/05/03 00:55:42;;;;;;;4.00;2.30;;;9.50;99.90;;;;;;4175823;28;20071;-61
2023/05/03 00:57:42;;;;;;;5.93;2.17;;;9.50;99.90;;;;;;4174742;28;20060;-61
2023/05/03 00:59:43;;;;;;;4.75;2.80;;;9.40;99.90;;;;;;4175085;28;20283;-61
2023/05/03 01:01:50;;;;;;;4.03;2.50;;;9.40;99.90;;;;;;4174038;28;20040;-61
2023/05/03 01:03:51;;;;;;;7.72;2.90;;;9.40;99.90;;;;;;4173081;28;20032;-61
2023/05/03 01:06:21;;;;;;;3.97;2.35;;;9.40;99.90;;;;;;4175223;28;20496;-61
2023/05/03 01:08:34;;;;;;;3.60;2.60;;;9.30;99.90;;;;;;4173699;28;20036;-61
2023/05/03 01:10:45;;;;;;;5.07;2.40;;;9.30;99.90;;;;;;4173953;28;20515;-61
2023/05/03 01:12:55;;;;;;;4.72;2.50;;;9.30;99.90;;;;;;4175067;28;20124;-61
2023/05/03 01:15:16;;;;;;;6.88;2.92;;;9.30;99.90;;;;;;4173491;28;20472;-61
2023/05/03 01:17:21;;;;;;;3.67;2.67;;;9.20;99.90;;;;;;4174514;28;20365;-61
2023/05/03 01:19:36;;;;;;;5.13;2.53;;;9.30;99.90;;;;;;4174862;28;20069;-61
2023/05/03 01:21:37;;;;;;;4.68;2.53;;;9.30;99.90;;;;;;4174199;28;20045;-64
2023/05/03 01:24:21;;;;;;;4.07;2.40;;;9.20;99.90;;;;;;4175282;28;20394;-61
2023/05/03 01:26:24;;;;;;;3.90;2.58;;;9.20;99.90;;;;;;4172954;28;20033;-61
2023/05/03 01:28:25;;;;;;;5.32;2.60;;;9.20;99.90;;;;;;4174377;28;20037;-61
2023/05/03 01:30:27;;;;;;;3.60;2.47;;;9.20;99.90;;;;;;4172094;28;20052;-61
2023/05/03 01:32:50;;;;;;;2.45;2.13;;;9.20;99.90;;;;;;4175507;28;20124;-61
2023/05/03 01:35:09;;;;;;;5.03;2.90;;;9.20;99.90;;;;;;4175301;28;20037;-61
2023/05/03 01:37:13;;;;;;;5.55;2.95;;;9.20;99.90;;;;;;4174266;28;20044;-61
2023/05/03 01:39:23;;;;;;;5.43;2.95;;;9.20;99.90;;;;;;4174194;28;20108;-61
2023/05/03 01:41:26;;;;;;;3.95;2.50;;;9.20;99.90;;;;;;4173994;28;20029;-61
2023/05/03 01:43:30;;;;;;;4.43;2.58;;;9.20;99.90;;;;;;4174923;28;20037;-61
2023/05/03 01:45:31;;;;;;;3.90;2.53;;;9.10;99.90;;;;;;4173338;28;20033;-61
2023/05/03 01:47:31;;;;;;;5.05;2.67;;;9.10;99.90;;;;;;4176214;28;20375;-61
2023/05/03 01:49:33;;;;;;;5.88;2.53;;;9.10;99.90;;;;;;4174838;28;20033;-61
2023/05/03 01:51:34;;;;;;;4.82;2.35;;;9.00;99.90;;;;;;4172869;28;20037;-61
2023/05/03 01:53:35;;;;;;;6.38;2.70;;;9.00;99.90;;;;;;4176381;28;20506;-61
2023/05/03 01:55:35;;;;;;;4.32;2.72;;;8.80;99.90;;;;;;4173299;28;20025;-61
2023/05/03 01:57:36;;;;;;;4.50;2.78;;;8.60;99.90;;;;;;4172776;28;20365;-61
2023/05/03 01:59:36;;;;;;;5.90;2.70;;;8.50;99.90;;;;;;4174934;28;20107;-61
2023/05/03 02:01:37;;;;;;;3.40;2.47;;;8.40;99.90;;;;;;4174928;28;20083;-62
2023/05/03 02:03:37;;;;;;;3.25;2.30;;;8.40;99.90;;;;;;4175686;28;20025;-61
2023/05/03 02:05:38;;;;;;;4.28;2.67;;;8.30;99.90;;;;;;4175208;28;20543;-61
2023/05/03 02:07:39;;;;;;;4.40;2.65;;;8.30;99.90;;;;;;4175992;28;20032;-61
2023/05/03 02:09:40;;;;;;;3.63;2.33;;;8.30;99.90;;;;;;4173416;28;20155;-61
2023/05/03 02:11:42;;;;;;;3.55;2.70;;;8.40;99.90;;;;;;4173924;28;20029;-61
2023/05/03 02:13:44;;;;;;;4.28;2.50;;;8.40;99.90;;;;;;4174139;28;20132;-61
2023/05/03 02:15:45;;;;;;;4.32;2.85;;;8.40;99.90;;;;;;4174574;28;20049;-61
2023/05/03 02:17:48;;;;;;;3.90;2.60;;;8.40;99.90;;;;;;4174163;28;20048;-61
2023/05/03 02:19:48;;;;;;;4.30;2.53;;;8.50;99.90;;;;;;4175335;28;20515;-61
2023/05/03 02:21:49;;;;;;;3.20;2.35;;;8.50;99.90;;;;;;4173296;28;20040;-61
2023/05/03 02:23:49;;;;;;;4.07;2.58;;;8.50;99.90;;;;;;4170839;28;20025;-61
2023/05/03 02:25:50;;;;;;;4.50;2.53;;;8.60;99.90;;;;;;4173876;28;20032;-61
2023/05/03 02:27:51;;;;;;;5.85;2.78;;;8.60;99.90;;;;;;4173695;28;20106;-61
2023/05/03 02:29:51;;;;;;;3.55;2.75;;;8.60;99.90;;;;;;4174198;28;20033;-61
2023/05/03 02:31:52;;;;;;;3.88;2.85;;;8.60;99.90;;;;;;4172233;28;20033;-61
2023/05/03 02:33:53;;;;;;;3.67;2.35;;;8.60;99.90;;;;;;4175346;28;20037;-60
2023/05/03 02:35:54;;;;;;;5.85;2.85;;;8.60;99.90;;;;;;4174306;28;20124;-61
2023/05/03 02:37:55;;;;;;;3.15;2.10;;;8.60;99.90;;;;;;4175360;28;20029;-61
2023/05/03 02:39:56;;;;;;;3.60;2.50;;;8.60;99.90;;;;;;4176323;28;20037;-61
2023/05/03 02:41:57;;;;;;;3.85;2.65;;;8.60;99.90;;;;;;4170988;28;20040;-61
2023/05/03 02:43:58;;;;;;;4.25;2.55;;;8.60;99.90;;;;;;4176698;28;20040;-61
2023/05/03 02:45:58;;;;;;;2.97;2.30;;;8.60;99.90;;;;;;4175370;28;20068;-61
2023/05/03 02:47:59;;;;;;;4.35;2.63;;;8.50;99.90;;;;;;4175125;28;20037;-61
2023/05/03 02:50:00;;;;;;;3.25;2.70;;;8.50;99.90;;;;;;4176436;28;20044;-61
2023/05/03 02:52:00;;;;;;;3.40;2.30;;;8.40;99.90;;;;;;4175424;28;20037;-61
2023/05/03 02:54:01;;;;;;;5.05;2.70;;;8.40;99.90;;;;;;4174289;28;20037;-61
2023/05/03 02:56:02;;;;;;;6.10;2.60;;;8.30;99.90;;;;;;4173251;28;20040;-62
2023/05/03 02:58:02;;;;;;;3.95;2.55;;;8.30;99.90;;;;;;4174789;28;20160;-61
2023/05/03 03:00:06;;;;;;;4.18;2.63;;;8.30;99.90;;;;;;4174033;28;20196;-61
2023/05/03 03:02:07;;;;;;;4.22;2.78;;;8.30;99.90;;;;;;4174015;28;20037;-61
2023/05/03 03:04:08;;;;;;;3.33;2.15;;;8.30;99.90;;;;;;4176183;28;20039;-61
2023/05/03 03:06:09;;;;;;;5.72;2.55;;;8.20;99.90;;;;;;4175339;28;20106;-62
2023/05/03 03:08:09;;;;;;;4.38;2.45;;;8.10;99.90;;;;;;4175530;28;20116;-61
2023/05/03 03:10:10;;;;;;;3.60;2.60;;;7.90;99.90;;;;;;4175071;28;20041;-61
2023/05/03 03:12:11;;;;;;;3.25;2.13;;;7.80;99.90;;;;;;4176158;28;20052;-61
2023/05/03 03:14:11;;;;;;;4.38;2.63;;;7.80;99.90;;;;;;4176102;28;20052;-61
2023/05/03 03:16:12;;;;;;;2.67;2.20;;;7.70;99.90;;;;;;4175188;28;20340;-61
2023/05/03 03:18:12;;;;;;;4.20;2.50;;;7.70;99.90;;;;;;4174307;28;20516;-61
2023/05/03 03:20:13;;;;;;;3.55;2.53;;;7.70;99.90;;;;;;4174418;28;20073;-61
2023/05/03 03:22:14;;;;;;;3.72;2.65;;;7.70;99.90;;;;;;4175784;28;20045;-61
2023/05/03 03:24:15;;;;;;;4.68;2.60;;;7.60;99.90;;;;;;4173521;28;20029;-61
2023/05/03 03:26:15;;;;;;;6.35;2.90;;;7.60;99.90;;;;;;4175056;28;20076;-61
2023/05/03 03:28:16;;;;;;;3.67;2.53;;;7.50;99.90;;;;;;4176250;28;20041;-61
2023/05/03 03:30:16;;;;;;;5.40;2.40;;;7.40;99.90;;;;;;4174894;28;20054;-61
2023/05/03 03:32:17;;;;;;;4.32;2.83;;;7.20;99.90;;;;;;4176874;28;20446;-61
2023/05/03 03:34:18;;;;;;;3.53;2.28;;;7.10;99.90;;;;;;4179036;28;20036;-61
2023/05/03 03:36:18;;;;;;;3.58;2.60;;;7.10;99.90;;;;;;4177241;28;20047;-63
2023/05/03 03:38:19;;;;;;;3.55;2.60;;;7.10;99.90;;;;;;4177594;28;20094;-61
2023/05/03 03:40:19;;;;;;;3.50;2.58;;;7.00;99.90;;;;;;4176728;28;20467;-61
2023/05/03 03:42:22;;;;;;;5.95;2.92;;;7.00;99.90;;;;;;4176542;28;20036;-61
2023/05/03 03:44:23;;;;;;;3.30;2.55;;;6.80;99.90;;;;;;4177354;28;20045;-61
2023/05/03 03:46:24;;;;;;;4.25;2.63;;;6.80;99.90;;;;;;4174711;28;20025;-60
2023/05/03 03:48:24;;;;;;;5.15;2.60;;;6.70;99.90;;;;;;4175453;28;20090;-61
2023/05/03 03:50:25;;;;;;;3.85;3.08;;;6.60;99.90;;;;;;4176337;28;20116;-60
2023/05/03 03:52:26;;;;;;;7.40;3.17;;;6.50;99.90;;;;;;4176751;28;20040;-61
2023/05/03 03:54:27;;;;;;;5.97;2.92;;;6.40;99.90;;;;;;4177215;28;20037;-61
2023/05/03 03:56:27;;;;;;;6.50;3.25;;;6.40;99.90;;;;;;4177242;28;20048;-61
2023/05/03 03:58:28;;;;;;;5.45;3.00;;;6.20;99.90;;;;;;4176251;28;20033;-61
2023/05/03 04:00:28;;;;;;;3.97;2.65;;;6.20;99.90;;;;;;4177637;28;22482;-61
2023/05/03 04:02:29;;;;;;;5.78;3.25;;;6.10;99.90;;;;;;4177827;28;20037;-61
2023/05/03 04:04:30;;;;;;;4.32;2.85;;;6.10;99.90;;;;;;4178355;28;20032;-61
2023/05/03 04:06:32;;;;;;;4.40;2.78;;;6.10;99.90;;;;;;4177659;28;20506;-61
2023/05/03 04:08:32;;;;;;;4.95;2.72;;;6.10;99.90;;;;;;4177659;28;20033;-61
2023/05/03 04:10:33;;;;;;;4.25;2.42;;;6.20;99.90;;;;;;4177637;28;20135;-61
2023/05/03 04:12:34;;;;;;;3.97;2.30;;;6.20;99.90;;;;;;4178428;28;20488;-61
2023/05/03 04:14:34;;;;;;;3.03;2.20;;;6.40;99.90;;;;;;4178262;28;20336;-61
2023/05/03 04:16:35;;;;;;;3.33;2.45;;;6.50;99.90;;;;;;4177501;28;20107;-61
2023/05/03 04:18:35;;;;;;;3.80;2.47;;;6.60;99.90;;;;;;4176231;28;20492;-61
2023/05/03 04:20:36;;;;;;;4.53;2.40;;;6.70;99.90;;;;;;4177057;28;20365;-61
2023/05/03 04:22:40;;;;;;;5.05;2.33;;;6.80;99.90;;;;;;4177686;28;20049;-61
2023/05/03 04:24:41;;;;;;;6.43;2.60;;;6.80;99.90;;;;;;4176403;28;20058;-61
2023/05/03 04:26:43;;;;;;;3.90;2.30;;;6.90;99.90;;;;;;4175196;28;20083;-61
2023/05/03 04:28:44;;;;;;;3.03;2.15;;;7.00;99.90;;;;;;4176758;28;20086;-61
2023/05/03 04:30:46;;;;;;;4.65;2.30;;;7.10;99.90;;;;;;4174339;28;20041;-61
2023/05/03 04:32:46;;;;;;;4.28;2.80;;;7.10;99.90;;;;;;4176345;28;20117;-61
2023/05/03 04:34:47;;;;;;;2.88;2.42;;;7.20;99.90;;;;;;4176870;28;20030;-61
2023/05/03 04:36:48;;;;;;;5.05;2.45;;;7.30;99.90;;;;;;4176223;28;20095;-61
2023/05/03 04:38:49;;;;;;;2.92;2.30;;;7.30;99.90;;;;;;4176004;28;20033;-61
2023/05/03 04:40:49;;;;;;;5.00;2.97;;;7.30;99.90;;;;;;4175355;28;20033;-60
2023/05/03 04:42:50;;;;;;;3.75;2.42;;;7.40;99.90;;;;;;4176121;28;20039;-61
2023/05/03 04:44:50;;;;;;;3.88;2.63;;;7.40;99.90;;;;;;4176680;28;20029;-61
2023/05/03 04:46:51;;;;;;;3.95;2.38;;;7.50;99.90;;;;;;4175359;28;20388;-61
2023/05/03 04:48:51;;;;;;;6.07;2.60;;;7.50;99.90;;;;;;4176740;28;20474;-61
2023/05/03 04:50:52;;;;;;;2.95;2.13;;;7.50;99.90;;;;;;4174873;28;20403;-61
2023/05/03 04:52:53;;;;;;;2.67;1.90;;;7.50;99.90;;;;;;4175923;28;20044;-61
2023/05/03 04:54:53;;;;;;;3.83;2.40;;;7.50;99.90;;;;;;4177995;28;20496;-61
2023/05/03 04:56:54;;;;;;;4.65;2.38;;;7.60;99.90;;;;;;4176948;28;20416;-61
2023/05/03 04:58:55;;;;;;;3.75;2.50;;;7.60;99.90;;;;;;4177848;28;20495;-61
2023/05/03 05:00:55;;;;;;;3.53;2.47;;;7.60;99.90;;;;;;4176626;28;20069;-61
2023/05/03 05:02:57;;;;;;;4.15;2.28;;;7.70;99.90;;;;;;4176852;28;20503;-61
2023/05/03 05:04:58;;;;;;;5.18;2.40;;;7.70;99.90;;;;;;4177760;28;20033;-61
2023/05/03 05:06:58;;;;;;;7.00;2.85;;;7.70;99.90;;;;;;4174232;28;20032;-61
2023/05/03 05:08:59;;;;;;;3.50;2.08;;;7.70;99.90;;;;;;4177272;28;20021;-61
2023/05/03 05:11:03;;;;;;;4.05;2.53;;;7.80;99.90;;;;;;4176653;28;20040;-61
2023/05/03 05:13:03;;;;;;;3.85;2.70;;;7.80;99.90;;;;;;4177457;28;20048;-62
2023/05/03 05:15:05;;;;;;;4.80;2.63;;;7.90;99.90;;;;;;4176861;28;20021;-61
2023/05/03 05:17:05;;;;;;;3.75;2.67;;;7.90;99.90;;;;;;4175667;28;20036;-61
2023/05/03 05:19:06;;;;;;;4.72;2.83;;;7.90;99.90;;;;;;4177027;28;20029;-61
2023/05/03 05:21:07;;;;;;;3.28;2.30;;;7.90;99.90;;;;;;4175340;28;20033;-61
2023/05/03 05:23:07;;;;;;;4.07;2.55;;;8.00;99.90;;;;;;4172739;28;20032;-61
2023/05/03 05:25:08;;;;;;;3.50;2.20;;;8.00;99.90;;;;;;4176239;28;20033;-62
2023/05/03 05:27:09;;;;;;;4.28;3.08;;;8.00;99.90;;;;;;4175427;28;20502;-61
2023/05/03 05:29:09;;;;;;;6.13;2.58;;;8.10;99.90;;;;;;4176993;28;20120;-61
2023/05/03 05:31:10;;;;;;;5.07;2.60;;;8.10;99.90;;;;;;4176258;28;20022;-61
2023/05/03 05:33:10;;;;;;;6.32;2.63;;;8.20;99.90;;;;;;4176759;28;20060;-62
2023/05/03 05:35:11;;;;;;;4.85;2.90;;;8.20;99.90;;;;;;4176112;28;20139;-61
2023/05/03 05:37:12;;;;;;;6.22;3.05;;;8.20;99.90;;;;;;4176638;28;20029;-61
2023/05/03 05:39:13;;;;;;;3.87;2.97;;;8.20;99.90;;;;;;4173943;28;20526;-61
2023/05/03 05:41:14;;;;;;;6.13;3.15;;;8.20;99.90;;;;;;4175508;28;20115;-61
2023/05/03 05:43:15;;;;;;;5.68;3.00;;;8.20;99.90;;;;;;4176607;28;20037;-61
2023/05/03 05:45:15;;;;;;;5.80;3.00;;;8.20;99.90;;;;;;4176110;28;20495;-61
2023/05/03 05:47:16;;;;;;;6.25;3.47;;;8.10;99.90;;;;;;4176084;28;20594;-61
2023/05/03 05:49:16;;;;;;;3.78;2.88;;;8.20;99.90;;;;;;4176751;28;20638;-60
2023/05/03 05:51:17;;;;;;;6.95;3.10;;;8.20;99.90;;;;;;4175958;28;20396;-62
2023/05/03 05:53:18;;;;;;;9.43;4.32;;;8.20;99.90;;;;;;4173618;28;20043;-62
2023/05/03 05:55:20;;;;;;;9.00;4.75;;;8.20;99.90;;;;;;4173777;28;20114;-63
2023/05/03 05:57:20;;;;;;;8.80;4.07;;;8.10;99.90;;;;;;4171809;28;20538;-64
2023/05/03 05:59:21;;;;;;;9.13;4.07;;;8.00;99.90;;;;;;4175421;28;20025;-64
2023/05/03 06:01:21;;;;;;;9.00;4.20;;;8.00;99.90;;;;;;4174007;28;20037;-64
2023/05/03 06:03:22;;;;;;;8.98;4.47;;;8.00;99.90;;;;;;4172878;28;20060;-63
2023/05/03 06:05:22;;;;;;;15.80;4.68;;;8.00;99.90;;;;;;4174101;28;20029;-64
2023/05/03 06:07:23;;;;;;;11.45;4.28;;;7.90;99.90;;;;;;4171982;28;20071;-64
2023/05/03 06:09:24;;;;;;;8.48;3.72;;;7.90;99.90;;;;;;4175462;28;20040;-64
2023/05/03 06:11:25;;;;;;;8.93;4.35;;;8.00;99.90;;;;;;4169088;28;20487;-64
2023/05/03 06:13:26;;;;;;;8.68;4.40;;;8.10;99.90;;;;;;4176039;28;20024;-64
2023/05/03 06:15:26;;;;;;;10.90;4.85;;;8.20;99.90;;;;;;4174772;28;20422;-64
2023/05/03 06:17:27;;;;;;;7.40;4.30;;;8.20;99.90;;;;;;4173325;28;20044;-64
2023/05/03 06:19:28;;;;;;;10.05;4.10;;;8.30;99.90;;;;;;4175159;28;20024;-64
2023/05/03 06:21:29;;;;;;;8.40;4.70;;;8.40;99.90;;;;;;4175878;28;20036;-64
2023/05/03 06:23:29;;;;;;;11.57;4.88;;;8.60;99.90;;;;;;4168573;28;20049;-64
2023/05/03 06:25:30;;;;;;;7.25;4.82;;;8.70;99.90;;;;;;4173905;28;20036;-64
2023/05/03 06:27:30;;;;;;;11.30;4.90;;;8.90;99.90;;;;;;4176360;28;20392;-64
2023/05/03 06:29:31;;;;;;;9.93;5.15;;;9.20;99.90;;;;;;4174885;28;20132;-64
2023/05/03 06:31:31;;;;;;;9.30;4.78;;;9.50;99.90;;;;;;4169078;28;20041;-64
2023/05/03 06:33:32;;;;;;;10.10;4.05;;;9.80;99.90;;;;;;4174661;28;20037;-64
2023/05/03 06:35:32;;;;;;;10.15;4.10;;;10.10;99.90;;;;;;4174145;28;20504;-64
2023/05/03 06:37:33;;;;;;;7.55;3.72;;;10.40;99.90;;;;;;4172949;28;20095;-64
2023/05/03 06:39:34;;;;;;;8.45;4.65;;;10.80;99.90;;;;;;4173925;28;20025;-67
2023/05/03 06:41:35;;;;;;;10.20;4.07;;;11.20;99.90;;;;;;4169783;28;20514;-65
2023/05/03 06:43:35;;;;;;;6.20;3.90;;;11.60;99.90;;;;;;4169228;28;20029;-65
2023/05/03 06:45:37;;;;;;;7.10;3.80;;;12.00;99.90;;;;;;4173777;28;20036;-65
2023/05/03 06:47:41;;;;;;;9.68;4.03;;;12.20;99.90;;;;;;4175740;28;20124;-65
2023/05/03 06:49:41;;;;;;;8.85;4.00;;;12.40;99.90;;;;;;4174005;28;20067;-67
2023/05/03 06:51:42;;;;;;;10.27;4.15;;;12.60;99.90;;;;;;4173457;28;20395;-66
2023/05/03 06:53:42;;;;;;;7.40;3.70;;;12.70;99.90;;;;;;4173736;28;20429;-65
2023/05/03 06:55:44;;;;;;;6.72;3.65;;;12.80;99.90;;;;;;4174809;28;20029;-65
2023/05/03 06:57:48;;;;;;;9.38;3.60;;;13.10;99.90;;;;;;4174187;28;20090;-65
2023/05/03 06:59:48;;;;;;;8.07;4.47;;;13.30;99.90;;;;;;4175640;28;20041;-65
2023/05/03 07:01:50;;;;;;;7.38;4.20;;;13.20;99.90;;;;;;4175505;28;20048;-65
2023/05/03 07:03:50;;;;;;;9.40;4.35;;;13.50;99.90;;;;;;4172088;28;20033;-64
2023/05/03 07:05:51;;;;;;;12.90;4.38;;;13.50;99.90;;;;;;4173065;28;20067;-64
2023/05/03 07:07:51;;;;;;;7.15;3.80;;;13.20;99.90;;;;;;4174589;28;20029;-65
2023/05/03 07:09:52;;;;;;;9.52;4.15;;;13.00;99.90;;;;;;4181819;28;20028;-65
2023/05/03 07:11:53;;;;;;;10.35;4.18;;;12.90;99.90;;;;;;4178119;28;20021;-65
2023/05/03 07:13:54;;;;;;;10.48;3.80;;;12.80;99.90;;;;;;4176271;28;20036;-64
2023/05/03 07:15:55;;;;;;;7.67;4.30;;;13.00;99.90;;;;;;4177403;28;20047;-65
2023/05/03 07:17:56;;;;;;;9.52;4.22;;;12.90;99.90;;;;;;4175794;28;20093;-64
2023/05/03 07:19:57;;;;;;;4.93;3.25;;;13.10;99.90;;;;;;4175037;28;20043;-65
2023/05/03 07:21:57;;;;;;;6.13;3.65;;;13.20;99.90;;;;;;4176377;28;20171;-65
2023/05/03 07:23:58;;;;;;;9.65;3.55;;;13.00;99.90;;;;;;4178110;28;20372;-65
2023/05/03 07:25:59;;;;;;;6.45;3.47;;;13.10;99.90;;;;;;4173467;28;20033;-65
2023/05/03 07:28:00;;;;;;;5.93;3.22;;;13.00;99.90;;;;;;4178199;28;20032;-64
2023/05/03 07:30:02;;;;;;;9.70;3.38;;;12.90;99.90;;;;;;4177322;28;20037;-65
2023/05/03 07:32:03;;;;;;;10.55;3.90;;;12.80;99.90;;;;;;4177890;28;20041;-64
2023/05/03 07:34:03;;;;;;;6.80;3.58;;;12.80;99.90;;;;;;4178004;28;20029;-64
2023/05/03 07:36:04;;;;;;;6.30;3.40;;;12.80;99.90;;;;;;4175748;28;20036;-64
2023/05/03 07:38:05;;;;;;;5.30;2.90;;;12.90;99.90;;;;;;4175992;28;20057;-65
2023/05/03 07:40:06;;;;;;;5.97;2.35;;;13.00;99.90;;;;;;4178061;28;20021;-67
2023/05/03 07:42:07;;;;;;;5.28;2.75;;;13.20;99.90;;;;;;4177835;28;20036;-64
2023/05/03 07:44:08;;;;;;;7.53;3.00;;;13.30;99.90;;;;;;4177865;28;20553;-65
2023/05/03 07:46:08;;;;;;;15.05;3.33;;;13.40;99.90;;;;;;4175917;28;20110;-64
2023/05/03 07:48:09;;;;;;;4.40;2.40;;;13.40;99.90;;;;;;4177372;28;20052;-64
2023/05/03 07:50:10;;;;;;;4.40;2.65;;;13.60;99.90;;;;;;4176825;28;20453;-65
2023/05/03 07:52:10;;;;;;;7.28;2.70;;;13.70;99.90;;;;;;4176517;28;20243;-64
2023/05/03 07:54:11;;;;;;;6.93;2.40;;;13.70;99.90;;;;;;4176673;28;20076;-64
2023/05/03 07:56:12;;;;;;;4.78;2.50;;;13.70;99.90;;;;;;4175300;28;20044;-65
2023/05/03 07:58:13;;;;;;;9.55;2.97;;;13.40;99.80;;;;;;4177821;28;20110;-65
2023/05/03 08:00:16;;;;;;;3.65;2.22;;;13.40;99.50;;;;;;4175929;28;20507;-66
2023/05/03 08:02:16;;;;;;;6.53;2.75;;;13.50;99.30;;;;;;4177055;28;20060;-65
2023/05/03 08:04:17;;;;;;;5.68;2.65;;;13.30;99.60;;;;;;4173128;28;20111;-64
2023/05/03 08:06:18;;;;;;;7.20;2.88;;;13.40;99.10;;;;;;4175129;28;20481;-65
2023/05/03 08:08:19;;;;;;;10.57;2.58;;;13.20;98.90;;;;;;4176210;28;20049;-64
2023/05/03 08:10:20;;;;;;;8.20;2.72;;;13.30;99.20;;;;;;4174626;28;20171;-64
2023/05/03 08:12:20;;;;;;;5.78;2.38;;;13.10;98.00;;;;;;4175610;28;20029;-64
2023/05/03 08:14:22;;;;;;;5.10;2.60;;;13.10;99.40;;;;;;4174208;28;20036;-64
2023/05/03 08:16:22;;;;;;;8.38;3.10;;;13.20;99.80;;;;;;4176581;28;20028;-64
2023/05/03 08:18:23;;;;;;;7.20;2.78;;;13.20;98.80;;;;;;4176949;28;20040;-64
2023/05/03 08:20:26;;;;;;;5.82;2.80;;;13.40;99.90;;;;;;4175630;28;20446;-64
2023/05/03 08:22:26;;;;;;;6.88;2.70;;;13.60;99.20;;;;;;4176365;28;20061;-64
2023/05/03 08:24:27;;;;;;;5.72;2.92;;;13.50;99.10;;;;;;4173734;28;20087;-64
2023/05/03 08:26:28;;;;;;;5.45;2.42;;;13.50;99.00;;;;;;4175508;28;20029;-64
2023/05/03 08:28:30;;;;;;;5.85;2.50;;;13.70;98.50;;;;;;4176434;28;20037;-64
2023/05/03 08:30:30;;;;;;;6.95;3.38;;;13.50;96.00;;;;;;4175595;28;20097;-64
2023/05/03 08:32:31;;;;;;;7.28;3.10;;;13.30;96.50;;;;;;4175502;28;20146;-64
2023/05/03 08:34:32;;;;;;;4.40;2.60;;;13.40;98.10;;;;;;4175881;28;20106;-64
2023/05/03 08:36:34;;;;;;;4.13;2.33;;;13.60;99.90;;;;;;4175239;28;20488;-63
2023/05/03 08:38:35;;;;;;;4.72;2.13;;;13.90;99.90;;;;;;4175073;28;20422;-64
2023/05/03 08:40:38;;;;;;;6.80;2.63;;;13.90;99.20;;;;;;4172879;28;20062;-70
2023/05/03 08:42:40;;;;;;;5.65;2.80;;;13.90;95.40;;;;;;4173067;28;20486;-64
2023/05/03 08:44:46;;;;;;;5.37;2.90;;;13.90;97.50;;;;;;4175119;28;20063;-64
2023/05/03 08:46:48;;;;;;;9.32;3.17;;;13.90;96.70;;;;;;4175001;28;20384;-64
2023/05/03 08:48:51;;;;;;;5.63;2.70;;;14.00;96.60;;;;;;4175891;28;20503;-64
2023/05/03 08:50:54;;;;;;;5.90;2.47;;;13.70;95.10;;;;;;4173455;28;20117;-64
2023/05/03 08:52:56;;;;;;;4.57;2.45;;;13.70;97.90;;;;;;4176885;28;20063;-64
2023/05/03 08:54:56;;;;;;;6.75;2.78;;;13.90;98.60;;;;;;4175774;28;20037;-64
2023/05/03 08:56:57;;;;;;;6.10;2.50;;;14.10;97.90;;;;;;4174335;28;20048;-63
2023/05/03 08:59:06;;;;;;;4.65;2.47;;;14.00;95.80;;;;;;4176187;28;20044;-64
2023/05/03 09:01:08;;;;;;;4.90;2.47;;;14.10;96.10;;;;;;4173678;28;20075;-67
2023/05/03 09:03:09;;;;;;;9.05;3.13;;;14.30;99.10;;;;;;4170776;28;20117;-64
2023/05/03 09:05:15;;;;;;;2.75;2.03;;;14.30;97.40;;;;;;4169833;28;20064;-64
2023/05/03 09:07:16;;;;;;;5.18;2.72;;;14.50;98.90;;;;;;4176016;28;20395;-64
2023/05/03 09:09:30;;;;;;;8.20;3.30;;;14.60;97.40;;;;;;4173888;28;20037;-64
2023/05/03 09:11:32;;;;;;;5.75;2.70;;;14.20;95.00;;;;;;4174514;28;20138;-64
2023/05/03 09:13:32;;;;;;;8.98;3.63;;;13.90;95.30;;;;;;4172094;28;20029;-64
2023/05/03 09:15:34;;;;;;;6.75;3.03;;;13.70;96.70;;;;;;4173495;28;20033;-63
2023/05/03 09:17:35;;;;;;;4.75;2.83;;;13.80;97.30;;;;;;4175043;28;20063;-63
2023/05/03 09:19:53;;;;;;;5.43;2.60;;;13.90;96.60;;;;;;4175970;28;20017;-64
2023/05/03 09:22:05;;;;;;;7.45;3.22;;;14.10;97.50;;;;;;4174379;28;20512;-63
2023/05/03 09:24:14;;;;;;;12.63;3.03;;;14.10;97.10;;;;;;4175844;28;20413;-64
2023/05/03 09:26:34;;;;;;;7.38;3.03;;;14.20;95.40;;;;;;4174236;28;20037;-64
2023/05/03 09:28:42;;;;;;;7.18;3.58;;;14.20;98.00;;;;;;4175688;28;20464;-64
2023/05/03 09:30:44;;;;;;;7.63;3.50;;;14.40;97.50;;;;;;4169603;28;20032;-79
2023/05/03 09:32:48;;;;;;;5.35;2.45;;;14.30;96.90;;;;;;4172109;28;20126;-75
2023/05/03 09:34:48;;;;;;;6.50;3.25;;;14.50;97.40;;;;;;4174697;28;20087;-82
2023/05/03 09:36:49;;;;;;;7.15;3.28;;;14.60;96.00;;;;;;4173915;28;20427;-83
2023/05/03 09:38:51;;;;;;;5.25;2.58;;;14.40;95.30;;;;;;4176085;28;20033;-79
2023/05/03 09:40:52;;;;;;;8.23;3.15;;;14.50;96.00;;;;;;4173933;28;20040;-81
2023/05/03 09:43:06;;;;;;;5.70;3.33;;;14.60;95.60;;;;;;4174683;28;20025;-87
2023/05/03 09:45:08;;;;;;;5.82;3.40;;;14.50;94.10;;;;;;4172589;28;20040;-73
2023/05/03 09:47:10;;;;;;;13.18;4.50;;;14.50;96.30;;;;;;4174063;28;20033;-84
2023/05/03 09:49:10;;;;;;;4.97;3.00;;;14.40;94.20;;;;;;4176873;28;20135;-84
2023/05/03 09:51:12;;;;;;;5.45;3.00;;;14.50;95.20;;;;;;4175046;28;20021;-85
2023/05/03 09:53:14;;;;;;;5.00;3.00;;;14.60;95.80;;;;;;4176987;28;20045;-81
2023/05/03 09:55:16;;;;;;;5.13;3.05;;;14.60;96.80;;;;;;4175419;28;20029;-73
2023/05/03 09:57:16;;;;;;;7.03;3.15;;;14.70;95.00;;;;;;4174368;28;20124;-81
2023/05/03 09:59:17;;;;;;;5.82;2.85;;;14.70;93.80;;;;;;4174202;28;20092;-76
2023/05/03 10:01:21;;;;;;;4.10;2.72;;;14.80;94.70;;;;;;4171317;28;20029;-75
2023/05/03 10:03:31;;;;;;;4.65;2.60;;;14.80;94.00;;;;;;4175354;28;20476;-76
2023/05/03 10:05:34;;;;;;;6.15;2.72;;;14.90;96.70;;;;;;4172942;28;20045;-77
2023/05/03 10:07:39;;;;;;;10.63;4.07;;;15.00;95.30;;;;;;4175793;28;20116;-77
2023/05/03 10:09:43;;;;;;;8.23;3.17;;;15.00;94.60;;;;;;4174296;28;20029;-76
2023/05/03 10:11:47;;;;;;;7.97;3.10;;;15.10;95.20;;;;;;4170868;28;20124;-77
2023/05/03 10:13:48;;;;;;;5.65;2.67;;;15.00;96.00;;;;;;4172946;28;20775;-80
2023/05/03 10:15:54;;;;;;;7.05;3.38;;;15.20;99.90;;;;;;4175175;28;20101;-82
2023/05/03 10:17:58;;;;;;;7.07;2.83;;;15.30;94.30;;;;;;4174945;28;20549;-79
2023/05/03 10:20:27;;;;;;;6.03;3.30;;;15.30;95.10;;;;;;4170538;28;20653;-81
2023/05/03 10:22:28;;;;;;;6.55;3.25;;;14.90;92.80;;;;;;4171261;28;20033;-78
2023/05/03 10:24:28;;;;;;;9.50;2.97;;;14.90;93.20;;;;;;4174226;28;20045;-78
2023/05/03 10:26:29;;;;;;;7.00;2.95;;;15.00;94.40;;;;;;4174034;28;20375;-76
2023/05/03 10:28:32;;;;;;;6.10;3.15;;;14.90;93.40;;;;;;4175642;28;20032;-76
2023/05/03 10:30:33;;;;;;;5.15;2.70;;;15.00;93.30;;;;;;4174068;28;20492;-81
2023/05/03 10:32:38;;;;;;;6.47;3.10;;;15.00;94.70;;;;;;4175641;28;20488;-75
2023/05/03 10:34:41;;;;;;;6.10;3.03;;;15.10;95.20;;;;;;4172926;28;20040;-72
2023/05/03 10:36:43;;;;;;;8.00;3.50;;;15.20;94.90;;;;;;4174894;28;20033;-80
2023/05/03 10:38:43;;;;;;;9.43;3.20;;;15.20;92.80;;;;;;4176209;28;20041;-79
2023/05/03 10:40:44;;;;;;;10.30;3.25;;;15.30;93.20;;;;;;4172305;28;20033;-76